PWSweather.com
Personal Weather Stations
Station Observations
SKYDIVEKS
Skydive Kansas, Osage City, KS 66523

Skydive KansasOsage City, KS 66523

Lat: 38.636, Lon: -95.803

Elevation: 1080

Station Type: La Crosse

http://www.skydivekansas.com

Latest ConditionsUpdated 9:45:00 PM CDT Saturday, Jul 23, 2016
Currently Today's Max Today's Min Today's Average
Temperature 89.8°F32.1°C 108.7°F42.6°C 82.0°F27.8°C 94.5°F34.7°C
Dew Point 68.1°F20.1°C 77.0°F25.0°C 65.2°F18.4°C 70.6°F21.4°C
Winds 9.8 mph SSE15.8 kmh SSE 16.6 mph S26.7 kmh S - 8.2 mph 13.2 kmh
Wind Gusts 11.6 mph18.7 kmh 21.7 mph34.9 kmh - -
Humidity 49% 57% 36% 47%
Pressure 28.83 in976.3 mb 28.94 in980.0 mb 28.81 in975.6 mb -
Hour Temp Dew Point Humidity Winds Wind Gusts Pressure Precip Precip Rate Daily Precip Total
09:45 PM 89.8°F32.1°C 68.1°F20.1°C 49% 9.8 mph SSE15.8 kmh SSE 11.6 mph18.7 kmh 28.83 in976.3 mb 0.00 in0.0 mm 0.00 in0.0 mm 0.00 in0.0 mm
09:30 PM 90.3°F32.4°C 68.5°F20.3°C 49% 9.2 mph SSE14.8 kmh SSE 11.9 mph19.2 kmh 28.82 in976.0 mb 0.00 in0.0 mm 0.00 in0.0 mm 0.00 in0.0 mm
09:15 PM 91.2°F32.9°C 68.7°F20.4°C 48% 8.1 mph SSE13.0 kmh SSE 12.3 mph19.8 kmh 28.82 in976.0 mb 0.00 in0.0 mm 0.00 in0.0 mm 0.00 in0.0 mm
09:00 PM 92.1°F33.4°C 68.9°F20.5°C 47% 8.1 mph SSE13.0 kmh SSE 11.0 mph17.7 kmh 28.81 in975.6 mb 0.00 in0.0 mm 0.00 in0.0 mm 0.00 in0.0 mm
08:45 PM 93.0°F33.9°C 69.0°F20.6°C 46% 7.6 mph SSE12.2 kmh SSE 10.5 mph16.9 kmh 28.81 in975.6 mb 0.00 in0.0 mm 0.00 in0.0 mm 0.00 in0.0 mm
08:30 PM 94.3°F34.6°C 69.6°F20.9°C 45% 8.3 mph SSE13.4 kmh SSE 12.1 mph19.5 kmh 28.81 in975.6 mb 0.00 in0.0 mm 0.00 in0.0 mm 0.00 in0.0 mm
08:15 PM 95.4°F35.2°C 70.6°F21.4°C 45% 8.1 mph SSE13.0 kmh SSE 13.4 mph21.6 kmh 28.81 in975.6 mb 0.00 in0.0 mm 0.00 in0.0 mm 0.00 in0.0 mm
08:00 PM 96.4°F35.8°C 70.9°F21.6°C 44% 8.3 mph SSE13.4 kmh SSE 12.8 mph20.6 kmh 28.81 in975.6 mb 0.00 in0.0 mm 0.00 in0.0 mm 0.00 in0.0 mm
07:45 PM 97.5°F36.4°C 71.9°F22.2°C 44% 6.5 mph SSE10.5 kmh SSE 12.1 mph19.5 kmh 28.81 in975.6 mb 0.00 in0.0 mm 0.00 in0.0 mm 0.00 in0.0 mm
07:30 PM 98.2°F36.8°C 71.8°F22.1°C 43% 8.1 mph SE13.0 kmh SE 11.4 mph18.3 kmh 28.81 in975.6 mb 0.00 in0.0 mm 0.00 in0.0 mm 0.00 in0.0 mm
07:15 PM 98.4°F36.9°C 72.0°F22.2°C 43% 9.2 mph SSE14.8 kmh SSE 12.8 mph20.6 kmh 28.81 in975.6 mb 0.00 in0.0 mm 0.00 in0.0 mm 0.00 in0.0 mm
07:00 PM 98.4°F36.9°C 72.0°F22.2°C 43% 9.2 mph SSE14.8 kmh SSE 12.3 mph19.8 kmh 28.81 in975.6 mb 0.00 in0.0 mm 0.00 in0.0 mm 0.00 in0.0 mm
06:45 PM 98.4°F36.9°C 72.0°F22.2°C 43% 8.9 mph SSE14.3 kmh SSE 12.5 mph20.1 kmh 28.81 in975.6 mb 0.00 in0.0 mm 0.00 in0.0 mm 0.00 in0.0 mm
06:30 PM 98.8°F37.1°C 71.7°F22.1°C 42% 7.2 mph S11.6 kmh S 16.3 mph26.2 kmh 28.82 in976.0 mb 0.00 in0.0 mm 0.00 in0.0 mm 0.00 in0.0 mm
06:15 PM 99.1°F37.3°C 72.6°F22.6°C 43% 5.8 mph S9.3 kmh S 15.4 mph24.8 kmh 28.82 in976.0 mb 0.00 in0.0 mm 0.00 in0.0 mm 0.00 in0.0 mm
06:00 PM 98.8°F37.1°C 72.3°F22.4°C 43% 8.3 mph S13.4 kmh S 15.9 mph25.6 kmh 28.82 in976.0 mb 0.00 in0.0 mm 0.00 in0.0 mm 0.00 in0.0 mm
05:45 PM 98.4°F36.9°C 72.0°F22.2°C 43% 11.6 mph S18.7 kmh S 18.1 mph29.1 kmh 28.82 in976.0 mb 0.00 in0.0 mm 0.00 in0.0 mm 0.00 in0.0 mm
05:30 PM 97.7°F36.5°C 72.0°F22.2°C 44% 8.9 mph S14.3 kmh S 15.2 mph24.5 kmh 28.82 in976.0 mb 0.00 in0.0 mm 0.00 in0.0 mm 0.00 in0.0 mm
05:15 PM 97.9°F36.6°C 72.2°F22.3°C 44% 13.6 mph S21.9 kmh S 18.6 mph29.9 kmh 28.83 in976.3 mb 0.00 in0.0 mm 0.00 in0.0 mm 0.00 in0.0 mm
05:00 PM 98.8°F37.1°C 72.3°F22.4°C 43% 15.2 mph S24.5 kmh S 21.5 mph34.6 kmh 28.83 in976.3 mb 0.00 in0.0 mm 0.00 in0.0 mm 0.00 in0.0 mm
04:45 PM 100.9°F38.3°C 72.9°F22.7°C 41% 15.0 mph S24.1 kmh S 21.0 mph33.8 kmh 28.83 in976.3 mb 0.00 in0.0 mm 0.00 in0.0 mm 0.00 in0.0 mm
04:30 PM 100.9°F38.3°C 72.9°F22.7°C 41% 14.8 mph S23.8 kmh S 19.7 mph31.7 kmh 28.84 in976.6 mb 0.00 in0.0 mm 0.00 in0.0 mm 0.00 in0.0 mm
04:15 PM 102.0°F38.9°C 73.2°F22.9°C 40% 12.1 mph S19.5 kmh S 19.5 mph31.4 kmh 28.84 in976.6 mb 0.00 in0.0 mm 0.00 in0.0 mm 0.00 in0.0 mm
04:00 PM 103.8°F39.9°C 73.2°F22.9°C 38% 12.1 mph S19.5 kmh S 21.3 mph34.3 kmh 28.84 in976.6 mb 0.00 in0.0 mm 0.00 in0.0 mm 0.00 in0.0 mm
03:45 PM 106.5°F41.4°C 74.7°F23.7°C 37% 16.6 mph S26.7 kmh S 19.7 mph31.7 kmh 28.84 in976.6 mb 0.00 in0.0 mm 0.00 in0.0 mm 0.00 in0.0 mm
03:30 PM 106.0°F41.1°C 74.2°F23.4°C 37% 11.9 mph S19.2 kmh S 19.9 mph32.0 kmh 28.84 in976.6 mb 0.00 in0.0 mm 0.00 in0.0 mm 0.00 in0.0 mm
03:15 PM 104.5°F40.3°C 73.8°F23.2°C 38% 11.2 mph SSW18.0 kmh SSW 19.2 mph30.9 kmh 28.85 in977.0 mb 0.00 in0.0 mm 0.00 in0.0 mm 0.00 in0.0 mm
03:00 PM 106.9°F41.6°C 75.0°F23.9°C 37% 11.9 mph S19.2 kmh S 21.0 mph33.8 kmh 28.85 in977.0 mb 0.00 in0.0 mm 0.00 in0.0 mm 0.00 in0.0 mm
02:45 PM 107.4°F41.9°C 74.6°F23.7°C 36% 13.9 mph S22.4 kmh S 21.7 mph34.9 kmh 28.85 in977.0 mb 0.00 in0.0 mm 0.00 in0.0 mm 0.00 in0.0 mm
02:30 PM 108.1°F42.3°C 75.2°F24.0°C 36% 15.9 mph SSW25.6 kmh SSW 19.7 mph31.7 kmh 28.85 in977.0 mb 0.00 in0.0 mm 0.00 in0.0 mm 0.00 in0.0 mm
02:15 PM 107.2°F41.8°C 75.3°F24.1°C 37% 11.4 mph S18.3 kmh S 18.1 mph29.1 kmh 28.86 in977.3 mb 0.00 in0.0 mm 0.00 in0.0 mm 0.00 in0.0 mm
02:00 PM 108.1°F42.3°C 75.2°F24.0°C 36% 8.3 mph S13.4 kmh S 20.8 mph33.5 kmh 28.86 in977.3 mb 0.00 in0.0 mm 0.00 in0.0 mm 0.00 in0.0 mm
01:45 PM 108.7°F42.6°C 75.7°F24.3°C 36% 7.6 mph SSW12.2 kmh SSW 18.1 mph29.1 kmh 28.86 in977.3 mb 0.00 in0.0 mm 0.00 in0.0 mm 0.00 in0.0 mm
01:30 PM 108.1°F42.3°C 76.1°F24.5°C 37% 13.4 mph S21.6 kmh S 19.7 mph31.7 kmh 28.86 in977.3 mb 0.00 in0.0 mm 0.00 in0.0 mm 0.00 in0.0 mm
01:15 PM 107.4°F41.9°C 74.6°F23.7°C 36% 11.4 mph S18.3 kmh S 18.1 mph29.1 kmh 28.86 in977.3 mb 0.00 in0.0 mm 0.00 in0.0 mm 0.00 in0.0 mm
01:00 PM 108.1°F42.3°C 76.1°F24.5°C 37% 14.1 mph S22.7 kmh S 20.4 mph32.8 kmh 28.86 in977.3 mb 0.00 in0.0 mm 0.00 in0.0 mm 0.00 in0.0 mm
12:45 PM 107.2°F41.8°C 75.3°F24.1°C 37% 11.6 mph S18.7 kmh S 18.8 mph30.3 kmh 28.87 in977.7 mb 0.00 in0.0 mm 0.00 in0.0 mm 0.00 in0.0 mm
12:30 PM 108.5°F42.5°C 76.4°F24.7°C 37% 11.6 mph S18.7 kmh S 17.0 mph27.4 kmh 28.87 in977.7 mb 0.00 in0.0 mm 0.00 in0.0 mm 0.00 in0.0 mm
12:15 PM 108.1°F42.3°C 77.0°F25.0°C 38% 8.9 mph S14.3 kmh S 16.1 mph25.9 kmh 28.88 in978.0 mb 0.00 in0.0 mm 0.00 in0.0 mm 0.00 in0.0 mm
12:00 PM 105.8°F41.0°C 75.8°F24.3°C 39% 9.8 mph S15.8 kmh S 14.3 mph23.0 kmh 28.89 in978.3 mb 0.00 in0.0 mm 0.00 in0.0 mm 0.00 in0.0 mm
11:45 AM 104.4°F40.2°C 75.3°F24.1°C 40% 7.6 mph S12.2 kmh S 15.4 mph24.8 kmh 28.89 in978.3 mb 0.00 in0.0 mm 0.00 in0.0 mm 0.00 in0.0 mm
11:30 AM 104.4°F40.2°C 75.3°F24.1°C 40% 11.0 mph S17.7 kmh S 14.8 mph23.8 kmh 28.89 in978.3 mb 0.00 in0.0 mm 0.00 in0.0 mm 0.00 in0.0 mm
11:15 AM 103.6°F39.8°C 74.7°F23.7°C 40% 5.8 mph S9.3 kmh S 12.3 mph19.8 kmh 28.89 in978.3 mb 0.00 in0.0 mm 0.00 in0.0 mm 0.00 in0.0 mm
11:00 AM 102.7°F39.3°C 74.6°F23.7°C 41% 7.2 mph S11.6 kmh S 11.6 mph18.7 kmh 28.90 in978.7 mb 0.00 in0.0 mm 0.00 in0.0 mm 0.00 in0.0 mm
10:45 AM 102.7°F39.3°C 73.9°F23.3°C 40% 5.1 mph S8.2 kmh S 9.8 mph15.8 kmh 28.90 in978.7 mb 0.00 in0.0 mm 0.00 in0.0 mm 0.00 in0.0 mm
10:30 AM 103.8°F39.9°C 74.9°F23.8°C 40% 4.5 mph S7.2 kmh S 7.6 mph12.2 kmh 28.91 in979.0 mb 0.00 in0.0 mm 0.00 in0.0 mm 0.00 in0.0 mm
10:15 AM 103.1°F39.5°C 74.9°F23.8°C 41% 5.4 mph SE8.7 kmh SE 8.3 mph13.4 kmh 28.91 in979.0 mb 0.00 in0.0 mm 0.00 in0.0 mm 0.00 in0.0 mm
10:00 AM 103.3°F39.6°C 75.0°F23.9°C 41% 6.5 mph S10.5 kmh S 9.8 mph15.8 kmh 28.92 in979.3 mb 0.00 in0.0 mm 0.00 in0.0 mm 0.00 in0.0 mm
09:45 AM 102.0°F38.9°C 75.2°F24.0°C 43% 6.7 mph S10.8 kmh S 8.3 mph13.4 kmh 28.92 in979.3 mb 0.00 in0.0 mm 0.00 in0.0 mm 0.00 in0.0 mm
09:30 AM 102.0°F38.9°C 75.2°F24.0°C 43% 6.0 mph SSE9.7 kmh SSE 9.4 mph15.1 kmh 28.94 in980.0 mb 0.00 in0.0 mm 0.00 in0.0 mm 0.00 in0.0 mm
09:15 AM 95.7°F35.4°C 74.2°F23.4°C 50% 4.9 mph SSE7.9 kmh SSE 7.6 mph12.2 kmh 28.93 in979.7 mb 0.00 in0.0 mm 0.00 in0.0 mm 0.00 in0.0 mm
09:00 AM 92.7°F33.7°C 71.3°F21.8°C 50% 6.9 mph S11.1 kmh S 8.9 mph14.3 kmh 28.93 in979.7 mb 0.00 in0.0 mm 0.00 in0.0 mm 0.00 in0.0 mm
08:45 AM 92.8°F33.8°C 72.0°F22.2°C 51% 7.2 mph SSE11.6 kmh SSE 10.5 mph16.9 kmh 28.93 in979.7 mb 0.00 in0.0 mm 0.00 in0.0 mm 0.00 in0.0 mm
08:30 AM 88.7°F31.5°C 69.9°F21.1°C 54% 4.9 mph SSE7.9 kmh SSE 8.3 mph13.4 kmh 28.94 in980.0 mb 0.00 in0.0 mm 0.00 in0.0 mm 0.00 in0.0 mm
08:15 AM 87.4°F30.8°C 68.7°F20.4°C 54% 4.0 mph SSE6.4 kmh SSE 8.3 mph13.4 kmh 28.94 in980.0 mb 0.00 in0.0 mm 0.00 in0.0 mm 0.00 in0.0 mm
08:00 AM 87.6°F30.9°C 68.4°F20.2°C 53% 5.8 mph S9.3 kmh S 8.9 mph14.3 kmh 28.93 in979.7 mb 0.00 in0.0 mm 0.00 in0.0 mm 0.00 in0.0 mm
07:45 AM 88.9°F31.6°C 69.0°F20.6°C 52% 8.5 mph S13.7 kmh S 10.1 mph16.3 kmh 28.93 in979.7 mb 0.00 in0.0 mm 0.00 in0.0 mm 0.00 in0.0 mm
07:30 AM 88.7°F31.5°C 69.3°F20.7°C 53% 4.0 mph S6.4 kmh S 8.3 mph13.4 kmh 28.92 in979.3 mb 0.00 in0.0 mm 0.00 in0.0 mm 0.00 in0.0 mm
07:15 AM 85.1°F29.5°C 68.1°F20.1°C 56% 5.8 mph S9.3 kmh S 10.3 mph16.6 kmh 28.91 in979.0 mb 0.00 in0.0 mm 0.00 in0.0 mm 0.00 in0.0 mm
07:00 AM 83.1°F28.4°C 66.3°F19.1°C 57% 5.1 mph S8.2 kmh S 7.4 mph11.9 kmh 28.91 in979.0 mb 0.00 in0.0 mm 0.00 in0.0 mm 0.00 in0.0 mm
06:45 AM 82.6°F28.1°C 65.7°F18.7°C 57% 8.7 mph S14.0 kmh S 10.7 mph17.2 kmh 28.91 in979.0 mb 0.00 in0.0 mm 0.00 in0.0 mm 0.00 in0.0 mm
06:30 AM 82.0°F27.8°C 65.2°F18.4°C 57% 5.1 mph S8.2 kmh S 8.5 mph13.7 kmh 28.91 in979.0 mb 0.00 in0.0 mm 0.00 in0.0 mm 0.00 in0.0 mm
06:15 AM 82.0°F27.8°C 65.2°F18.4°C 57% 5.8 mph S9.3 kmh S 7.6 mph12.2 kmh 28.89 in978.3 mb 0.00 in0.0 mm 0.00 in0.0 mm 0.00 in0.0 mm
06:00 AM 82.2°F27.9°C 65.4°F18.6°C 57% 5.1 mph S8.2 kmh S 7.8 mph12.6 kmh 28.90 in978.7 mb 0.00 in0.0 mm 0.00 in0.0 mm 0.00 in0.0 mm
05:45 AM 82.2°F27.9°C 65.4°F18.6°C 57% 4.9 mph S7.9 kmh S 7.4 mph11.9 kmh 28.90 in978.7 mb 0.00 in0.0 mm 0.00 in0.0 mm 0.00 in0.0 mm
05:30 AM 82.2°F27.9°C 65.4°F18.6°C 57% 5.8 mph S9.3 kmh S 7.8 mph12.6 kmh 28.89 in978.3 mb 0.00 in0.0 mm 0.00 in0.0 mm 0.00 in0.0 mm
05:15 AM 82.2°F27.9°C 65.4°F18.6°C 57% 7.4 mph S11.9 kmh S 9.4 mph15.1 kmh 28.89 in978.3 mb 0.00 in0.0 mm 0.00 in0.0 mm 0.00 in0.0 mm
05:00 AM 82.2°F27.9°C 65.4°F18.6°C 57% 7.8 mph S12.6 kmh S 10.7 mph17.2 kmh 28.89 in978.3 mb 0.00 in0.0 mm 0.00 in0.0 mm 0.00 in0.0 mm
04:45 AM 82.6°F28.1°C 65.7°F18.7°C 57% 4.0 mph S6.4 kmh S 10.7 mph17.2 kmh 28.90 in978.7 mb 0.00 in0.0 mm 0.00 in0.0 mm 0.00 in0.0 mm
04:30 AM 82.6°F28.1°C 65.2°F18.4°C 56% 6.0 mph S9.7 kmh S 10.7 mph17.2 kmh 28.89 in978.3 mb 0.00 in0.0 mm 0.00 in0.0 mm 0.00 in0.0 mm
04:15 AM 82.6°F28.1°C 65.2°F18.4°C 56% 5.8 mph S9.3 kmh S 9.2 mph14.8 kmh 28.89 in978.3 mb 0.00 in0.0 mm 0.00 in0.0 mm 0.00 in0.0 mm
04:00 AM 82.6°F28.1°C 65.2°F18.4°C 56% 5.6 mph S9.0 kmh S 10.7 mph17.2 kmh 28.89 in978.3 mb 0.00 in0.0 mm 0.00 in0.0 mm 0.00 in0.0 mm
03:45 AM 82.9°F28.3°C 65.6°F18.7°C 56% 6.0 mph S9.7 kmh S 10.5 mph16.9 kmh 28.90 in978.7 mb 0.00 in0.0 mm 0.00 in0.0 mm 0.00 in0.0 mm
03:30 AM 82.9°F28.3°C 65.6°F18.7°C 56% 5.1 mph S8.2 kmh S 8.5 mph13.7 kmh 28.90 in978.7 mb 0.00 in0.0 mm 0.00 in0.0 mm 0.00 in0.0 mm
03:15 AM 83.3°F28.5°C 65.4°F18.6°C 55% 6.0 mph SSE9.7 kmh SSE 10.7 mph17.2 kmh 28.91 in979.0 mb 0.00 in0.0 mm 0.00 in0.0 mm 0.00 in0.0 mm
03:00 AM 83.5°F28.6°C 65.6°F18.7°C 55% 9.2 mph S14.8 kmh S 10.7 mph17.2 kmh 28.91 in979.0 mb 0.00 in0.0 mm 0.00 in0.0 mm 0.00 in0.0 mm
02:45 AM 84.0°F28.9°C 66.1°F18.9°C 55% 5.4 mph S8.7 kmh S 6.9 mph11.1 kmh 28.92 in979.3 mb 0.00 in0.0 mm 0.00 in0.0 mm 0.00 in0.0 mm
02:30 AM 84.0°F28.9°C 66.1°F18.9°C 55% 4.5 mph S7.2 kmh S 6.0 mph9.7 kmh 28.93 in979.7 mb 0.00 in0.0 mm 0.00 in0.0 mm 0.00 in0.0 mm
02:15 AM 84.4°F29.1°C 66.5°F19.2°C 55% 5.4 mph SE8.7 kmh SE 7.4 mph11.9 kmh 28.92 in979.3 mb 0.00 in0.0 mm 0.00 in0.0 mm 0.00 in0.0 mm
02:00 AM 84.7°F29.3°C 66.8°F19.3°C 55% 2.2 mph SE3.5 kmh SE 5.1 mph8.2 kmh 28.92 in979.3 mb 0.00 in0.0 mm 0.00 in0.0 mm 0.00 in0.0 mm
01:45 AM 85.3°F29.6°C 66.7°F19.3°C 54% 4.5 mph SE7.2 kmh SE 5.8 mph9.3 kmh 28.92 in979.3 mb 0.00 in0.0 mm 0.00 in0.0 mm 0.00 in0.0 mm
01:30 AM 85.6°F29.8°C 66.5°F19.2°C 53% 5.8 mph SSE9.3 kmh SSE 8.9 mph14.3 kmh 28.92 in979.3 mb 0.00 in0.0 mm 0.00 in0.0 mm 0.00 in0.0 mm
01:15 AM 85.8°F29.9°C 66.7°F19.3°C 53% 8.3 mph SSE13.4 kmh SSE 11.2 mph18.0 kmh 28.92 in979.3 mb 0.00 in0.0 mm 0.00 in0.0 mm 0.00 in0.0 mm
01:00 AM 86.4°F30.2°C 66.7°F19.3°C 52% 7.8 mph SSE12.6 kmh SSE 10.7 mph17.2 kmh 28.92 in979.3 mb 0.00 in0.0 mm 0.00 in0.0 mm 0.00 in0.0 mm
12:45 AM 86.7°F30.4°C 67.0°F19.4°C 52% 10.1 mph S16.3 kmh S 10.3 mph16.6 kmh 28.91 in979.0 mb 0.00 in0.0 mm 0.00 in0.0 mm 0.00 in0.0 mm
12:30 AM 87.1°F30.6°C 67.3°F19.6°C 52% 7.2 mph S11.6 kmh S 11.6 mph18.7 kmh 28.91 in979.0 mb 0.00 in0.0 mm 0.00 in0.0 mm 0.00 in0.0 mm
12:15 AM 87.4°F30.8°C 67.1°F19.5°C 51% 8.7 mph SSE14.0 kmh SSE 10.7 mph17.2 kmh 28.92 in979.3 mb 0.00 in0.0 mm 0.00 in0.0 mm 0.00 in0.0 mm
12:00 AM 87.6°F30.9°C 67.3°F19.6°C 51% 7.2 mph SSE11.6 kmh SSE 11.4 mph18.3 kmh 28.91 in979.0 mb 0.00 in0.0 mm 0.00 in0.0 mm 0.00 in0.0 mm